createdAt,value
2019-03-15T00:02:14.538Z,100618.34
2019-03-15T00:04:41.610Z,100623.25
2019-03-15T00:07:08.678Z,100620.37
2019-03-15T00:09:35.737Z,100622.58
2019-03-15T00:12:02.826Z,100621.27
2019-03-15T00:14:29.942Z,100619.64
2019-03-15T00:16:56.997Z,100618.33
2019-03-15T00:19:24.045Z,100620.58
2019-03-15T00:21:51.160Z,100622.25
2019-03-15T00:24:19.217Z,100621.05
2019-03-15T00:26:46.455Z,100629.84
2019-03-15T00:29:13.546Z,100633.40
2019-03-15T00:31:40.601Z,100631.67
2019-03-15T00:34:07.669Z,100631.82
2019-03-15T00:36:34.746Z,100633.50
2019-03-15T00:39:09.194Z,100635.75
2019-03-15T00:41:37.663Z,100641.92
2019-03-15T00:44:04.698Z,100639.88
2019-03-15T00:46:31.746Z,100641.66
2019-03-15T00:48:58.839Z,100639.88
2019-03-15T00:51:25.916Z,100651.28
2019-03-15T00:53:54.450Z,100645.63
2019-03-15T00:56:21.860Z,100646.52
2019-03-15T00:58:48.960Z,100645.53
2019-03-15T01:01:16.155Z,100648.09
2019-03-15T01:03:43.216Z,100645.69
2019-03-15T01:06:10.359Z,100645.59
2019-03-15T01:08:37.423Z,100644.80
2019-03-15T01:11:05.667Z,100637.11
2019-03-15T01:13:32.759Z,100634.44
2019-03-15T01:15:59.807Z,100641.14
2019-03-15T01:18:26.863Z,100641.14
2019-03-15T01:20:54.013Z,100637.80
2019-03-15T01:23:21.041Z,100639.20
2019-03-15T01:25:48.086Z,100639.52
2019-03-15T01:28:16.246Z,100644.70
2019-03-15T01:30:43.401Z,100649.05
2019-03-15T01:33:10.456Z,100641.45
2019-03-15T01:35:37.532Z,100638.52
2019-03-15T01:38:04.585Z,100644.37
2019-03-15T01:40:31.636Z,100636.16
2019-03-15T01:42:58.720Z,100634.80
2019-03-15T01:45:25.809Z,100636.37
2019-03-15T01:47:52.845Z,100634.91
2019-03-15T01:50:20.026Z,100633.77
2019-03-15T01:52:47.101Z,100634.92
2019-03-15T01:55:14.143Z,100640.20
2019-03-15T01:57:41.329Z,100628.38
2019-03-15T02:00:09.237Z,100628.80
2019-03-15T02:02:36.594Z,100635.70
2019-03-15T02:05:04.292Z,100628.06
2019-03-15T02:07:33.138Z,100631.47
2019-03-15T02:10:00.296Z,100622.73
2019-03-15T02:12:27.396Z,100613.63
2019-03-15T02:14:54.442Z,100614.16
2019-03-15T02:17:21.487Z,100605.67
2019-03-15T02:19:48.575Z,100608.19
2019-03-15T02:22:15.626Z,100611.69
2019-03-15T02:24:42.659Z,100602.59
2019-03-15T02:27:09.752Z,100598.94
2019-03-15T02:29:36.802Z,100601.18
2019-03-15T02:32:03.837Z,100603.42
2019-03-15T02:34:30.920Z,100604.78
2019-03-15T02:36:58.015Z,100590.88
2019-03-15T02:39:25.227Z,100593.44
2019-03-15T02:41:52.460Z,100582.87
2019-03-15T02:44:20.678Z,100585.02
2019-03-15T02:46:47.730Z,100584.50
2019-03-15T02:49:14.824Z,100583.66
2019-03-15T02:51:41.866Z,100581.83
2019-03-15T02:54:08.939Z,100582.35
2019-03-15T02:56:36.260Z,100584.08
2019-03-15T02:59:03.369Z,100578.84
2019-03-15T03:01:30.437Z,100570.48
2019-03-15T03:03:57.519Z,100573.52
2019-03-15T03:06:24.565Z,100569.06
2019-03-15T03:08:51.601Z,100571.21
2019-03-15T03:11:18.693Z,100573.78
2019-03-15T03:13:45.734Z,100568.55
2019-03-15T03:16:12.786Z,100561.70
2019-03-15T03:18:39.849Z,100550.92
2019-03-15T03:21:06.906Z,100545.37
2019-03-15T03:23:34.009Z,100544.95
2019-03-15T03:26:01.114Z,100535.70
2019-03-15T03:28:30.174Z,100530.05
2019-03-15T03:30:57.344Z,100524.03
2019-03-15T03:33:24.454Z,100522.20
2019-03-15T03:36:10.052Z,100527.53
2019-03-15T03:38:37.252Z,100528.42
2019-03-15T03:41:04.807Z,100522.35
2019-03-15T03:43:31.920Z,100511.94
2019-03-15T03:45:58.970Z,100500.59
2019-03-15T03:48:26.066Z,100491.06
2019-03-15T03:50:53.126Z,100498.97
2019-03-15T03:53:20.212Z,100503.31
2019-03-15T03:55:47.251Z,100500.42
2019-03-15T03:58:14.293Z,100504.44
2019-03-15T04:00:41.382Z,100499.67
2019-03-15T04:03:09.541Z,100510.23
2019-03-15T04:05:36.581Z,100508.88
2019-03-15T04:08:04.027Z,100496.59
2019-03-15T04:10:31.084Z,100503.18
2019-03-15T04:12:58.093Z,100498.73
2019-03-15T04:15:25.181Z,100491.88
2019-03-15T04:17:52.220Z,100495.99
2019-03-15T04:20:19.253Z,100495.63
2019-03-15T04:23:38.073Z,100496.52
2019-03-15T04:26:04.501Z,100491.37
2019-03-15T04:28:51.141Z,100495.16
2019-03-15T04:31:18.220Z,100487.63
2019-03-15T04:33:46.635Z,100490.34
2019-03-15T04:36:13.662Z,100478.20
2019-03-15T04:38:40.754Z,100478.20
2019-03-15T04:41:07.842Z,100483.84
2019-03-15T04:43:34.965Z,100486.98
2019-03-15T04:46:02.014Z,100480.91
2019-03-15T04:48:35.203Z,100484.83
2019-03-15T04:51:02.233Z,100475.62
2019-03-15T04:53:29.279Z,100470.44
2019-03-15T04:55:56.351Z,100471.33
2019-03-15T04:58:23.396Z,100466.47
2019-03-15T05:00:50.498Z,100463.44
2019-03-15T05:03:17.560Z,100458.25
2019-03-15T05:05:44.621Z,100465.21
2019-03-15T05:08:11.667Z,100466.05
2019-03-15T05:10:38.732Z,100454.65
2019-03-15T05:13:05.802Z,100458.67
2019-03-15T05:15:32.837Z,100447.27
2019-03-15T05:17:59.922Z,100447.64
2019-03-15T05:20:27.016Z,100437.50
2019-03-15T05:22:54.458Z,100442.31
2019-03-15T05:25:21.541Z,100440.55
2019-03-15T05:27:48.592Z,100443.63
2019-03-15T05:30:15.634Z,100435.36
2019-03-15T05:32:42.706Z,100441.48
2019-03-15T05:35:09.750Z,100444.47
2019-03-15T05:37:36.800Z,100438.34
2019-03-15T05:40:04.887Z,100439.19
2019-03-15T05:42:31.931Z,100434.38
2019-03-15T05:44:59.048Z,100423.12
2019-03-15T05:47:30.334Z,100417.46
2019-03-15T05:49:57.481Z,100423.91
2019-03-15T05:52:24.545Z,100414.29
2019-03-15T05:54:51.625Z,100413.73
2019-03-15T05:57:18.685Z,100409.38
2019-03-15T05:59:45.754Z,100413.31
2019-03-15T06:02:12.880Z,100409.90
2019-03-15T06:04:39.934Z,100406.34
2019-03-15T06:07:06.967Z,100403.22
2019-03-15T06:09:34.046Z,100390.70
2019-03-15T06:12:01.093Z,100385.89
2019-03-15T06:14:28.150Z,100386.36
2019-03-15T06:16:57.355Z,100390.75
2019-03-15T06:19:42.813Z,100399.44
2019-03-15T06:22:09.954Z,100399.77
2019-03-15T06:24:37.003Z,100394.48
2019-03-15T06:27:04.236Z,100387.52
2019-03-15T06:29:31.293Z,100383.23
2019-03-15T06:31:58.359Z,100383.65
2019-03-15T06:34:25.476Z,100389.30
2019-03-15T06:36:52.561Z,100380.94
2019-03-15T06:39:19.649Z,100380.05
2019-03-15T06:42:06.014Z,100373.56
2019-03-15T06:44:33.063Z,100369.64
2019-03-15T06:47:00.941Z,100369.59
2019-03-15T06:49:28.220Z,100360.02
2019-03-15T06:51:55.268Z,100360.02
2019-03-15T06:54:22.513Z,100352.22
2019-03-15T06:56:49.876Z,100346.19
2019-03-15T06:59:16.952Z,100346.19
2019-03-15T07:01:44.036Z,100341.47
2019-03-15T07:04:11.135Z,100333.20
2019-03-15T07:06:38.208Z,100329.73
2019-03-15T07:09:06.906Z,100324.17
2019-03-15T07:11:34.531Z,100318.14
2019-03-15T07:14:01.695Z,100312.06
2019-03-15T07:16:28.770Z,100302.58
2019-03-15T07:18:55.899Z,100307.94
2019-03-15T07:21:22.989Z,100297.98
2019-03-15T07:23:50.039Z,100287.13
2019-03-15T07:26:17.156Z,100287.22
2019-03-15T07:28:44.254Z,100286.84
2019-03-15T07:31:17.087Z,100279.95
2019-03-15T07:33:44.180Z,100274.37
2019-03-15T07:36:11.276Z,100275.73
2019-03-15T07:38:38.336Z,100277.58
2019-03-15T07:41:05.419Z,100276.81
2019-03-15T07:43:32.500Z,100262.08
2019-03-15T07:45:59.566Z,100260.04
2019-03-15T07:48:26.998Z,100259.73
2019-03-15T07:50:54.188Z,100264.63
2019-03-15T07:53:21.310Z,100262.12
2019-03-15T07:55:48.361Z,100253.53
2019-03-15T07:58:15.429Z,100256.77
2019-03-15T08:00:42.529Z,100251.25
2019-03-15T08:03:09.682Z,100238.69
2019-03-15T08:05:36.735Z,100233.14
2019-03-15T08:08:03.857Z,100234.55
2019-03-15T08:10:30.905Z,100230.77
2019-03-15T08:12:57.968Z,100234.77
2019-03-15T08:15:25.051Z,100242.41
2019-03-15T08:17:52.114Z,100239.44
2019-03-15T08:20:19.305Z,100240.00
2019-03-15T08:22:46.480Z,100237.98
2019-03-15T08:25:13.564Z,100243.25
2019-03-15T08:27:40.626Z,100234.15
2019-03-15T08:30:09.969Z,100239.56
2019-03-15T08:32:37.041Z,100242.70
2019-03-15T08:35:05.089Z,100244.19
2019-03-15T08:37:32.183Z,100247.82
2019-03-15T08:39:59.254Z,100251.52
2019-03-15T08:42:26.297Z,100249.58
2019-03-15T08:44:53.488Z,100259.31
2019-03-15T08:47:21.876Z,100252.08
2019-03-15T08:49:49.372Z,100250.09
2019-03-15T08:52:16.502Z,100244.11
2019-03-15T08:54:46.461Z,100247.28
2019-03-15T08:57:12.656Z,100253.58
2019-03-15T08:59:53.842Z,100246.27
2019-03-15T09:02:08.979Z,100246.81
2019-03-15T09:04:36.005Z,100250.94
2019-03-15T09:07:03.206Z,100236.66
2019-03-15T09:12:55.298Z,100253.94
2019-03-15T09:15:22.455Z,100251.97
2019-03-15T09:17:49.525Z,100265.53
2019-03-15T09:20:16.711Z,100263.95
2019-03-15T09:22:43.880Z,100262.68
2019-03-15T09:25:19.139Z,100266.22
2019-03-15T09:27:45.253Z,100259.36
2019-03-15T09:30:22.578Z,100260.41
2019-03-15T09:32:40.539Z,100259.58
2019-03-15T09:35:07.755Z,100261.53
2019-03-15T09:37:34.828Z,100269.06
2019-03-15T09:40:01.934Z,100269.98
2019-03-15T09:42:29.044Z,100266.53
2019-03-15T09:44:56.111Z,100279.26
2019-03-15T09:47:23.208Z,100265.73
2019-03-15T09:49:50.340Z,100267.66
2019-03-15T09:52:17.397Z,100269.89
2019-03-15T09:54:44.480Z,100267.81
2019-03-15T09:57:11.734Z,100282.38
2019-03-15T09:59:38.800Z,100278.06
2019-03-15T10:02:07.819Z,100279.87
2019-03-15T10:04:36.164Z,100280.32
2019-03-15T10:07:03.367Z,100271.59
2019-03-15T10:09:46.041Z,100278.21
2019-03-15T10:12:31.018Z,100279.60
2019-03-15T10:14:58.967Z,100277.87
2019-03-15T10:17:40.565Z,100287.09
2019-03-15T10:20:26.051Z,100294.19
2019-03-15T10:23:11.303Z,100291.14
2019-03-15T10:25:46.711Z,100285.48
2019-03-15T10:28:08.361Z,100280.73
2019-03-15T10:30:37.416Z,100281.64
2019-03-15T10:33:06.577Z,100287.84
2019-03-15T10:35:34.823Z,100288.84
2019-03-15T10:38:03.523Z,100283.63
2019-03-15T10:40:31.145Z,100294.64
2019-03-15T10:43:25.621Z,100281.03
2019-03-15T10:45:53.299Z,100293.82
2019-03-15T10:48:25.567Z,100300.02
2019-03-15T10:50:50.546Z,100296.48
2019-03-15T10:53:17.765Z,100298.33
2019-03-15T10:55:59.171Z,100306.69
2019-03-15T10:58:15.943Z,100312.48
2019-03-15T11:00:43.031Z,100314.73
2019-03-15T11:03:12.953Z,100314.30
2019-03-15T11:05:39.148Z,100313.91
2019-03-15T11:08:06.339Z,100320.88
2019-03-15T11:10:33.407Z,100322.75
2019-03-15T11:13:00.466Z,100333.86
2019-03-15T11:15:27.570Z,100331.64
2019-03-15T11:17:54.702Z,100341.73
2019-03-15T11:20:21.772Z,100335.13
2019-03-15T11:22:48.844Z,100333.36
2019-03-15T11:25:15.972Z,100333.88
2019-03-15T11:27:43.102Z,100335.70
2019-03-15T11:30:10.212Z,100330.53
2019-03-15T11:32:37.448Z,100327.92
2019-03-15T11:35:05.520Z,100335.41
2019-03-15T11:37:32.683Z,100337.64
2019-03-15T11:39:59.986Z,100339.87
2019-03-15T11:42:27.055Z,100339.04
2019-03-15T11:44:54.126Z,100332.87
2019-03-15T11:47:21.382Z,100341.25
2019-03-15T11:49:48.461Z,100333.34
2019-03-15T11:52:15.564Z,100339.99
2019-03-15T11:54:42.706Z,100332.11
2019-03-15T11:57:11.192Z,100329.48
2019-03-15T11:59:38.258Z,100337.43
2019-03-15T12:02:05.400Z,100335.20
2019-03-15T12:04:35.386Z,100349.22
2019-03-15T12:07:02.464Z,100333.84
2019-03-15T12:09:29.588Z,100332.53
2019-03-15T12:11:56.658Z,100328.15
2019-03-15T12:14:23.718Z,100335.23
2019-03-15T12:16:50.832Z,100329.17
2019-03-15T12:19:17.904Z,100326.59
2019-03-15T12:21:44.954Z,100322.25
2019-03-15T12:24:12.036Z,100316.97
2019-03-15T12:26:40.470Z,100342.45
2019-03-15T12:29:09.004Z,100353.44
2019-03-15T12:31:36.221Z,100352.66
2019-03-15T12:34:03.379Z,100354.86
2019-03-15T12:36:30.454Z,100350.02
2019-03-15T12:38:58.494Z,100316.14
2019-03-15T12:41:25.767Z,100341.72
2019-03-15T12:43:52.815Z,100342.19
2019-03-15T12:46:19.917Z,100335.58
2019-03-15T12:48:46.988Z,100338.23
2019-03-15T12:51:14.044Z,100332.48
2019-03-15T12:53:41.464Z,100330.27
2019-03-15T12:56:11.061Z,100302.05
2019-03-15T12:58:37.481Z,100328.91
2019-03-15T13:01:04.751Z,100323.58
2019-03-15T13:03:31.973Z,100311.61
2019-03-15T13:05:59.073Z,100311.24
2019-03-15T13:08:26.173Z,100327.98
2019-03-15T13:10:53.241Z,100325.35
2019-03-15T13:13:20.403Z,100331.94
2019-03-15T13:15:47.592Z,100319.59
2019-03-15T13:18:14.718Z,100285.28
2019-03-15T13:20:41.835Z,100312.05
2019-03-15T13:23:08.979Z,100299.72
2019-03-15T13:25:36.043Z,100307.59
2019-03-15T13:28:03.111Z,100310.18
2019-03-15T13:30:30.228Z,100301.81
2019-03-15T13:32:57.499Z,100312.82
2019-03-15T13:35:24.553Z,100308.88
2019-03-15T13:37:51.646Z,100310.27
2019-03-15T13:40:18.836Z,100311.08
2019-03-15T13:42:45.961Z,100304.09
2019-03-15T13:45:13.163Z,100297.92
2019-03-15T13:47:40.239Z,100298.41
2019-03-15T13:50:08.726Z,100290.98
2019-03-15T13:52:36.726Z,100290.12
2019-03-15T13:55:04.172Z,100295.39
2019-03-15T13:57:31.245Z,100290.12
2019-03-15T13:59:58.361Z,100289.67
2019-03-15T14:02:25.472Z,100301.13
2019-03-15T14:04:52.592Z,100312.11
2019-03-15T14:07:20.077Z,100295.84
2019-03-15T14:09:47.467Z,100318.19
2019-03-15T14:12:14.562Z,100303.23
2019-03-15T14:14:41.664Z,100291.87
2019-03-15T14:17:08.723Z,100323.50
2019-03-15T14:19:35.955Z,100310.27
2019-03-15T14:22:06.027Z,100309.88
2019-03-15T14:24:33.432Z,100312.56
2019-03-15T14:27:00.512Z,100310.36
2019-03-15T14:29:27.642Z,100309.03
2019-03-15T14:31:54.685Z,100309.03
2019-03-15T14:34:21.832Z,100315.11
2019-03-15T14:36:53.200Z,100313.83
2019-03-15T14:39:21.725Z,100315.57
2019-03-15T14:41:48.846Z,100326.16
2019-03-15T14:44:18.278Z,100327.91
2019-03-15T14:46:45.022Z,100327.45
2019-03-15T14:49:12.089Z,100315.13
2019-03-15T14:51:39.637Z,100329.23
2019-03-15T14:54:06.793Z,100321.30
2019-03-15T14:56:33.897Z,100322.61
2019-03-15T14:59:01.101Z,100323.50
2019-03-15T15:01:28.206Z,100325.23
2019-03-15T15:03:55.299Z,100320.39
2019-03-15T15:06:22.587Z,100322.52
2019-03-15T15:08:49.651Z,100315.13
2019-03-15T15:11:16.860Z,100312.89
2019-03-15T15:13:43.998Z,100295.63
2019-03-15T15:16:11.041Z,100309.27
2019-03-15T15:18:39.532Z,100310.12
2019-03-15T15:21:06.737Z,100308.25
2019-03-15T15:23:34.786Z,100327.57
2019-03-15T15:26:02.171Z,100326.20
2019-03-15T15:28:29.316Z,100325.73
2019-03-15T15:30:56.430Z,100344.59
2019-03-15T15:33:23.716Z,100328.27
2019-03-15T15:35:50.802Z,100330.40
2019-03-15T15:38:18.010Z,100335.61
2019-03-15T15:40:45.173Z,100333.38
2019-03-15T15:43:12.365Z,100336.88
2019-03-15T15:45:39.573Z,100343.44
2019-03-15T15:48:06.723Z,100350.86
2019-03-15T15:50:33.902Z,100346.91
2019-03-15T15:53:02.112Z,100348.16
2019-03-15T15:55:32.253Z,100348.94
2019-03-15T15:57:59.334Z,100346.30
2019-03-15T16:00:26.500Z,100340.97
2019-03-15T16:02:53.573Z,100333.82
2019-03-15T16:05:20.690Z,100340.42
2019-03-15T16:07:47.808Z,100337.87
2019-03-15T16:10:17.975Z,100337.86
2019-03-15T16:12:44.151Z,100330.30
2019-03-15T16:15:11.389Z,100328.18
2019-03-15T16:17:38.789Z,100330.73
2019-03-15T16:20:06.750Z,100317.55
2019-03-15T16:22:33.944Z,100312.37
2019-03-15T16:25:01.028Z,100317.16
2019-03-15T16:27:28.210Z,100323.71
2019-03-15T16:29:55.298Z,100320.19
2019-03-15T16:32:22.376Z,100330.20
2019-03-15T16:34:49.454Z,100323.70
2019-03-15T16:37:16.599Z,100341.64
2019-03-15T16:39:43.660Z,100341.58
2019-03-15T16:42:10.809Z,100335.91
2019-03-15T16:44:37.968Z,100338.11
2019-03-15T16:47:05.063Z,100345.98
2019-03-15T16:49:32.496Z,100345.13
2019-03-15T16:51:59.587Z,100348.30
2019-03-15T16:54:26.769Z,100372.44
2019-03-15T16:56:53.826Z,100375.89
2019-03-15T16:59:20.928Z,100384.24
2019-03-15T17:01:48.001Z,100385.56
2019-03-15T17:04:15.047Z,100381.10
2019-03-15T17:06:42.224Z,100390.25
2019-03-15T17:09:09.371Z,100391.61
2019-03-15T17:11:36.487Z,100392.89
2019-03-15T17:14:03.811Z,100405.61
2019-03-15T17:16:31.010Z,100397.26
2019-03-15T17:18:58.062Z,100398.55
2019-03-15T17:21:25.269Z,100407.73
2019-03-15T17:23:52.979Z,100418.28
2019-03-15T17:26:20.717Z,100417.05
2019-03-15T17:28:57.855Z,100430.20
2019-03-15T17:31:16.776Z,100449.52
2019-03-15T17:33:43.852Z,100447.28
2019-03-15T17:36:10.953Z,100442.94
2019-03-15T17:38:37.995Z,100439.38
2019-03-15T17:41:06.884Z,100457.36
2019-03-15T17:43:34.011Z,100469.27
2019-03-15T17:46:01.085Z,100464.50
2019-03-15T17:48:28.195Z,100461.87
2019-03-15T17:50:55.622Z,100469.67
2019-03-15T17:53:22.858Z,100481.08
2019-03-15T17:55:50.069Z,100481.88
2019-03-15T17:58:17.233Z,100486.65
2019-03-15T18:00:45.208Z,100490.14
2019-03-15T18:03:20.899Z,100489.67
2019-03-15T18:05:41.706Z,100510.67
2019-03-15T18:08:08.780Z,100522.02
2019-03-15T18:10:35.883Z,100528.54
2019-03-15T18:13:03.478Z,100522.77
2019-03-15T18:15:30.578Z,100525.37
2019-03-15T18:18:00.016Z,100547.73
2019-03-15T18:20:26.832Z,100544.65
2019-03-15T18:22:54.069Z,100547.61
2019-03-15T18:25:21.291Z,100555.86
2019-03-15T18:27:48.810Z,100569.84
2019-03-15T18:30:15.878Z,100577.07
2019-03-15T18:32:42.995Z,100585.37
2019-03-15T18:35:10.409Z,100598.64
2019-03-15T18:37:37.497Z,100608.70
2019-03-15T18:40:07.078Z,100596.98
2019-03-15T18:42:34.211Z,100608.89
2019-03-15T18:45:01.346Z,100605.62
2019-03-15T18:47:28.458Z,100602.84
2019-03-15T18:49:55.637Z,100623.73
2019-03-15T18:52:23.803Z,100618.32
2019-03-15T18:54:50.960Z,100620.87
2019-03-15T18:57:18.028Z,100620.02
2019-03-15T18:59:45.124Z,100627.05
2019-03-15T19:02:12.350Z,100608.67
2019-03-15T19:04:57.684Z,100640.75
2019-03-15T19:07:24.847Z,100636.08
2019-03-15T19:09:51.951Z,100637.94
2019-03-15T19:12:19.034Z,100633.45
2019-03-15T19:14:46.249Z,100637.77
2019-03-15T19:17:13.331Z,100650.52
2019-03-15T19:19:40.395Z,100656.61
2019-03-15T19:22:07.506Z,100662.25
2019-03-15T19:24:34.569Z,100670.05
2019-03-15T19:27:07.575Z,100661.41
2019-03-15T19:29:35.749Z,100665.38
2019-03-15T19:32:02.846Z,100671.91
2019-03-15T19:34:29.940Z,100673.64
2019-03-15T19:36:57.208Z,100678.08
2019-03-15T19:39:24.369Z,100680.63
2019-03-15T19:41:51.625Z,100674.95
2019-03-15T19:44:19.010Z,100689.34
2019-03-15T19:46:46.136Z,100703.32
2019-03-15T19:49:13.275Z,100698.92
2019-03-15T19:51:44.741Z,100696.30
2019-03-15T19:54:11.804Z,100716.99
2019-03-15T19:56:38.899Z,100725.72
2019-03-15T19:59:05.974Z,100723.55
2019-03-15T20:01:33.243Z,100725.67
2019-03-15T20:04:00.338Z,100739.27
2019-03-15T20:06:27.413Z,100741.93
2019-03-15T20:08:54.499Z,100753.36
2019-03-15T20:11:21.592Z,100749.89
2019-03-15T20:13:48.872Z,100744.64
2019-03-15T20:16:15.931Z,100744.55
2019-03-15T20:18:43.031Z,100750.23
2019-03-15T20:21:10.110Z,100755.56
2019-03-15T20:23:37.255Z,100762.93
2019-03-15T20:26:04.292Z,100759.76
2019-03-15T20:28:31.460Z,100763.69
2019-03-15T20:30:58.545Z,100756.24
2019-03-15T20:33:25.636Z,100754.12
2019-03-15T20:35:52.747Z,100757.09
2019-03-15T20:38:19.866Z,100759.29
2019-03-15T20:40:46.938Z,100761.11
2019-03-15T20:43:14.056Z,100765.56
2019-03-15T20:45:41.173Z,100776.91
2019-03-15T20:48:08.299Z,100768.56
2019-03-15T20:50:46.080Z,100772.92
2019-03-15T20:53:09.789Z,100769.70
2019-03-15T20:55:33.418Z,100770.81
2019-03-15T20:58:00.475Z,100775.09
2019-03-15T21:00:35.654Z,100767.97
2019-03-15T21:02:56.573Z,100775.42
2019-03-15T21:05:23.655Z,100773.73
2019-03-15T21:07:50.787Z,100777.62
2019-03-15T21:10:17.860Z,100789.44
2019-03-15T21:12:52.444Z,100792.39
2019-03-15T21:15:19.528Z,100787.61
2019-03-15T21:17:46.645Z,100788.92
2019-03-15T21:20:16.734Z,100784.09
2019-03-15T21:22:43.849Z,100785.07
2019-03-15T21:25:10.903Z,100778.09
2019-03-15T21:27:38.010Z,100788.72
2019-03-15T21:30:06.738Z,100789.56
2019-03-15T21:32:33.956Z,100787.78
2019-03-15T21:35:01.086Z,100796.50
2019-03-15T21:37:29.759Z,100793.50
2019-03-15T21:39:56.965Z,100796.08
2019-03-15T21:42:24.106Z,100809.20
2019-03-15T21:44:52.737Z,100807.94
2019-03-15T21:47:19.831Z,100808.78
2019-03-15T21:49:46.929Z,100807.00
2019-03-15T21:52:14.064Z,100822.75
2019-03-15T21:54:41.134Z,100823.13
2019-03-15T21:57:08.186Z,100825.62
2019-03-15T21:59:38.964Z,100828.19
2019-03-15T22:02:05.388Z,100828.57
2019-03-15T22:04:32.445Z,100828.57
2019-03-15T22:06:59.683Z,100835.59
2019-03-15T22:09:26.753Z,100839.91
2019-03-15T22:11:53.817Z,100839.95
2019-03-15T22:14:20.927Z,100833.67
2019-03-15T22:16:48.033Z,100838.20
2019-03-15T22:19:15.264Z,100843.95
2019-03-15T22:21:42.327Z,100838.84
2019-03-15T22:24:09.450Z,100838.59
2019-03-15T22:26:36.524Z,100835.21
2019-03-15T22:29:03.746Z,100851.43
2019-03-15T22:31:30.881Z,100843.09
2019-03-15T22:33:57.956Z,100837.50
2019-03-15T22:36:25.013Z,100848.98
2019-03-15T22:38:52.109Z,100851.23
2019-03-15T22:41:19.170Z,100848.59
2019-03-15T22:43:47.282Z,100845.51
2019-03-15T22:46:14.364Z,100839.79
2019-03-15T22:48:41.469Z,100858.68
2019-03-15T22:51:08.706Z,100856.09
2019-03-15T22:53:35.796Z,100869.23
2019-03-15T22:56:02.866Z,100875.75
2019-03-15T22:58:30.001Z,100871.47
2019-03-15T23:00:57.186Z,100873.81
2019-03-15T23:03:24.259Z,100882.20
2019-03-15T23:05:53.982Z,100876.61
2019-03-15T23:08:21.091Z,100878.01
2019-03-15T23:10:48.221Z,100879.41
2019-03-15T23:13:15.305Z,100882.55
2019-03-15T23:15:42.463Z,100887.55
2019-03-15T23:18:09.550Z,100884.95
2019-03-15T23:20:36.625Z,100888.90
2019-03-15T23:23:03.703Z,100905.13
2019-03-15T23:25:32.048Z,100895.55
2019-03-15T23:27:59.177Z,100905.64
2019-03-15T23:30:26.288Z,100906.23
2019-03-15T23:32:54.587Z,100904.95
2019-03-15T23:35:53.442Z,100896.57
2019-03-15T23:38:08.813Z,100903.18
2019-03-15T23:40:35.887Z,100907.72
2019-03-15T23:43:03.002Z,100893.77
2019-03-15T23:45:30.148Z,100901.31
2019-03-15T23:47:57.808Z,100911.73
2019-03-15T23:50:24.919Z,100910.30
2019-03-15T23:52:51.970Z,100904.58
2019-03-15T23:55:19.011Z,100915.94
2019-03-15T23:57:46.134Z,100930.44
